createdAt,value
2023-03-29T00:02:04.895Z,64.27
2023-03-29T00:04:31.757Z,64.20
2023-03-29T00:07:04.242Z,64.14
2023-03-29T00:09:33.562Z,64.41
2023-03-29T00:12:01.467Z,64.21
2023-03-29T00:14:30.946Z,64.26
2023-03-29T00:16:59.268Z,64.29
2023-03-29T00:19:26.485Z,64.45
2023-03-29T00:21:53.224Z,64.46
2023-03-29T00:24:21.540Z,64.23
2023-03-29T00:26:49.285Z,64.64
2023-03-29T00:29:16.160Z,64.72
2023-03-29T00:31:46.212Z,64.97
2023-03-29T00:34:12.940Z,65.50
2023-03-29T00:36:40.419Z,65.82
2023-03-29T00:39:08.505Z,66.17
2023-03-29T00:41:36.576Z,66.08
2023-03-29T00:44:05.158Z,66.35
2023-03-29T00:46:35.219Z,66.54
2023-03-29T00:49:07.766Z,66.80
2023-03-29T00:51:39.814Z,66.75
2023-03-29T00:54:10.654Z,66.84
2023-03-29T00:56:40.614Z,66.71
2023-03-29T00:59:13.906Z,66.96
2023-03-29T01:01:50.634Z,67.19
2023-03-29T01:04:18.801Z,67.32
2023-03-29T01:06:55.926Z,67.25
2023-03-29T01:09:27.258Z,67.40
2023-03-29T01:11:57.613Z,67.74
2023-03-29T01:14:38.926Z,68.02
2023-03-29T01:17:06.875Z,68.22
2023-03-29T01:19:44.520Z,68.12
2023-03-29T01:22:39.482Z,68.22
2023-03-29T01:25:57.320Z,68.17
2023-03-29T01:28:34.496Z,68.48
2023-03-29T01:31:08.643Z,68.40
2023-03-29T01:33:44.976Z,68.71
2023-03-29T01:36:11.954Z,68.57
2023-03-29T01:38:51.418Z,68.52
2023-03-29T01:41:18.198Z,68.49
2023-03-29T01:44:13.249Z,68.70
2023-03-29T01:46:48.194Z,68.80
2023-03-29T01:49:24.429Z,69.05
2023-03-29T01:51:51.254Z,69.07
2023-03-29T01:54:24.027Z,69.15
2023-03-29T01:56:52.378Z,69.17
2023-03-29T01:59:23.925Z,69.15
2023-03-29T02:01:54.917Z,69.14
2023-03-29T02:04:30.044Z,69.09
2023-03-29T02:07:00.924Z,69.03
2023-03-29T02:09:29.795Z,69.30
2023-03-29T02:12:00.667Z,69.29
2023-03-29T02:14:27.940Z,69.17
2023-03-29T02:16:54.646Z,69.19
2023-03-29T02:19:24.287Z,69.06
2023-03-29T02:22:01.646Z,69.45
2023-03-29T02:24:32.585Z,69.64
2023-03-29T02:27:01.362Z,69.73
2023-03-29T02:29:28.142Z,69.75
2023-03-29T02:32:13.550Z,69.89
2023-03-29T02:35:17.848Z,69.96
2023-03-29T02:37:49.925Z,69.82
2023-03-29T02:40:18.176Z,70.12
2023-03-29T02:42:45.910Z,70.28
2023-03-29T02:45:15.873Z,70.35
2023-03-29T02:47:46.669Z,70.11
2023-03-29T02:50:13.595Z,70.35
2023-03-29T02:52:47.287Z,70.38
2023-03-29T02:55:17.351Z,70.55
2023-03-29T02:57:44.093Z,70.65
2023-03-29T03:00:12.395Z,71.00
2023-03-29T03:02:39.201Z,70.97
2023-03-29T03:05:06.603Z,70.91
2023-03-29T03:07:36.169Z,70.95
2023-03-29T03:10:05.232Z,71.06
2023-03-29T03:12:32.010Z,70.94
2023-03-29T03:14:59.114Z,71.24
2023-03-29T03:17:26.017Z,71.22
2023-03-29T03:19:53.357Z,71.25
2023-03-29T03:22:20.188Z,71.46
2023-03-29T03:24:46.992Z,71.57
2023-03-29T03:27:13.863Z,71.52
2023-03-29T03:29:41.691Z,71.75
2023-03-29T03:32:08.503Z,71.90
2023-03-29T03:34:35.740Z,71.82
2023-03-29T03:37:02.512Z,71.79
2023-03-29T03:39:29.529Z,71.64
2023-03-29T03:41:56.556Z,71.81
2023-03-29T03:44:23.310Z,72.07
2023-03-29T03:46:49.980Z,72.10
2023-03-29T03:49:16.862Z,72.18
2023-03-29T03:51:45.647Z,72.27
2023-03-29T03:54:12.516Z,72.38
2023-03-29T03:56:39.285Z,72.50
2023-03-29T03:59:07.334Z,72.50
2023-03-29T04:01:35.632Z,72.57
2023-03-29T04:04:03.268Z,72.63
2023-03-29T04:06:30.764Z,72.82
2023-03-29T04:08:58.100Z,72.53
2023-03-29T04:11:24.967Z,72.53
2023-03-29T04:13:51.816Z,72.50
2023-03-29T04:16:18.516Z,72.51
2023-03-29T04:18:45.558Z,72.35
2023-03-29T04:21:12.291Z,72.31
2023-03-29T04:23:39.012Z,72.49
2023-03-29T04:26:06.829Z,72.42
2023-03-29T04:28:33.506Z,72.57
2023-03-29T04:31:00.405Z,72.69
2023-03-29T04:33:29.127Z,72.81
2023-03-29T04:35:55.758Z,72.99
2023-03-29T04:38:23.518Z,72.86
2023-03-29T04:40:50.866Z,72.87
2023-03-29T04:43:17.677Z,72.70
2023-03-29T04:45:44.893Z,72.72
2023-03-29T04:48:11.797Z,72.67
2023-03-29T04:50:38.555Z,72.70
2023-03-29T04:53:06.120Z,72.58
2023-03-29T04:55:32.962Z,71.39
2023-03-29T04:57:59.741Z,70.33
2023-03-29T05:00:29.455Z,69.09
2023-03-29T05:02:58.317Z,68.21
2023-03-29T05:05:25.326Z,67.46
2023-03-29T05:07:52.114Z,66.99
2023-03-29T05:10:19.233Z,66.45
2023-03-29T05:12:46.969Z,65.94
2023-03-29T05:15:15.020Z,65.31
2023-03-29T05:17:42.491Z,64.40
2023-03-29T05:20:13.301Z,64.08
2023-03-29T05:22:40.464Z,63.67
2023-03-29T05:25:08.997Z,63.74
2023-03-29T05:27:35.856Z,62.60
2023-03-29T05:30:02.765Z,61.66
2023-03-29T05:32:30.304Z,61.31
2023-03-29T05:34:57.116Z,60.80
2023-03-29T05:37:23.773Z,60.75
2023-03-29T05:39:50.419Z,60.26
2023-03-29T05:42:19.369Z,60.02
2023-03-29T05:44:46.225Z,59.19
2023-03-29T05:47:12.849Z,58.47
2023-03-29T05:49:39.724Z,58.13
2023-03-29T05:52:06.859Z,57.83
2023-03-29T05:54:33.704Z,57.35
2023-03-29T05:57:00.553Z,57.33
2023-03-29T05:59:29.823Z,56.97
2023-03-29T06:01:56.872Z,56.44
2023-03-29T06:04:24.700Z,55.77
2023-03-29T06:06:53.205Z,55.45
2023-03-29T06:09:20.221Z,54.17
2023-03-29T06:11:47.735Z,53.68
2023-03-29T06:14:15.680Z,53.23
2023-03-29T06:16:43.500Z,52.64
2023-03-29T06:19:10.211Z,52.15
2023-03-29T06:21:36.920Z,52.15
2023-03-29T06:24:04.373Z,52.20
2023-03-29T06:26:31.536Z,52.14
2023-03-29T06:28:58.427Z,51.78
2023-03-29T06:31:25.357Z,51.66
2023-03-29T06:33:52.142Z,50.87
2023-03-29T06:36:20.321Z,50.62
2023-03-29T06:38:47.356Z,51.12
2023-03-29T06:41:15.191Z,50.82
2023-03-29T06:43:43.343Z,50.79
2023-03-29T06:46:12.441Z,50.41
2023-03-29T06:48:40.371Z,50.52
2023-03-29T06:51:07.820Z,50.17
2023-03-29T06:53:35.747Z,49.37
2023-03-29T06:56:09.501Z,49.17
2023-03-29T06:58:36.791Z,50.03
2023-03-29T07:01:05.065Z,50.21
2023-03-29T07:03:35.601Z,50.22
2023-03-29T07:06:10.265Z,48.93
2023-03-29T07:08:43.594Z,48.67
2023-03-29T07:11:15.659Z,49.37
2023-03-29T07:13:43.445Z,48.90
2023-03-29T07:16:13.059Z,47.84
2023-03-29T07:18:44.469Z,48.25
2023-03-29T07:21:12.599Z,48.78
2023-03-29T07:23:40.901Z,48.77
2023-03-29T07:26:08.123Z,48.59
2023-03-29T07:28:35.663Z,48.18
2023-03-29T07:31:07.413Z,47.63
2023-03-29T07:33:34.811Z,47.61
2023-03-29T07:36:02.150Z,47.82
2023-03-29T07:38:29.464Z,47.35
2023-03-29T07:40:56.402Z,46.94
2023-03-29T07:43:24.208Z,46.93
2023-03-29T07:45:53.086Z,46.55
2023-03-29T07:48:19.861Z,45.95
2023-03-29T07:50:46.878Z,45.10
2023-03-29T07:53:13.852Z,43.84
2023-03-29T07:55:47.755Z,43.17
2023-03-29T07:58:15.717Z,43.68
2023-03-29T08:00:43.895Z,42.78
2023-03-29T08:03:12.630Z,44.03
2023-03-29T08:05:41.808Z,43.54
2023-03-29T08:08:09.848Z,41.91
2023-03-29T08:10:39.228Z,41.46
2023-03-29T08:13:09.538Z,41.83
2023-03-29T08:15:39.236Z,43.02
2023-03-29T08:18:08.596Z,41.86
2023-03-29T08:20:35.494Z,41.57
2023-03-29T08:23:02.254Z,41.46
2023-03-29T08:25:29.050Z,41.86
2023-03-29T08:27:55.841Z,41.17
2023-03-29T08:30:22.540Z,40.95
2023-03-29T08:32:52.870Z,41.63
2023-03-29T08:35:21.497Z,41.86
2023-03-29T08:37:48.218Z,41.88
2023-03-29T08:40:27.420Z,42.03
2023-03-29T08:43:00.138Z,40.77
2023-03-29T08:45:51.440Z,41.51
2023-03-29T08:48:27.480Z,40.21
2023-03-29T08:50:58.813Z,40.70
2023-03-29T08:53:45.290Z,41.18
2023-03-29T08:56:16.976Z,41.03
2023-03-29T08:58:45.280Z,41.58
2023-03-29T09:01:12.604Z,42.46
2023-03-29T09:03:44.206Z,41.80
2023-03-29T09:06:15.743Z,41.56
2023-03-29T09:08:47.799Z,42.54
2023-03-29T09:11:32.790Z,42.48
2023-03-29T09:14:14.571Z,43.19
2023-03-29T09:17:02.786Z,43.45
2023-03-29T09:19:40.026Z,43.08
2023-03-29T09:22:21.933Z,43.37
2023-03-29T09:25:05.387Z,43.68
2023-03-29T09:27:44.608Z,43.39
2023-03-29T09:30:26.451Z,42.79
2023-03-29T09:33:19.436Z,42.80
2023-03-29T09:36:10.246Z,44.13
2023-03-29T09:38:41.514Z,44.48
2023-03-29T09:41:26.888Z,43.75
2023-03-29T09:43:56.314Z,43.84
2023-03-29T09:46:29.291Z,43.81
2023-03-29T09:48:57.002Z,43.68
2023-03-29T09:51:28.170Z,43.02
2023-03-29T09:53:56.922Z,43.03
2023-03-29T09:56:23.815Z,43.34
2023-03-29T09:58:50.521Z,42.91
2023-03-29T10:01:21.621Z,42.32
2023-03-29T10:03:53.373Z,42.66
2023-03-29T10:06:23.988Z,41.43
2023-03-29T10:08:53.072Z,41.53
2023-03-29T10:11:20.467Z,41.66
2023-03-29T10:13:51.208Z,41.27
2023-03-29T10:16:28.737Z,41.48
2023-03-29T10:18:55.604Z,40.45
2023-03-29T10:21:23.841Z,40.12
2023-03-29T10:23:58.612Z,40.96
2023-03-29T10:26:31.059Z,40.46
2023-03-29T10:29:00.684Z,40.76
2023-03-29T10:31:33.209Z,40.46
2023-03-29T10:34:06.664Z,39.91
2023-03-29T10:36:47.871Z,38.53
2023-03-29T10:39:16.433Z,38.88
2023-03-29T10:41:44.840Z,39.28
2023-03-29T10:44:32.930Z,38.91
2023-03-29T10:47:17.789Z,37.78
2023-03-29T10:49:53.221Z,39.24
2023-03-29T10:52:22.613Z,38.81
2023-03-29T10:54:52.744Z,37.89
2023-03-29T10:57:32.544Z,38.52
2023-03-29T11:00:18.328Z,38.64
2023-03-29T11:03:07.986Z,37.91
2023-03-29T11:06:14.948Z,38.33
2023-03-29T11:08:52.914Z,38.16
2023-03-29T11:11:49.528Z,38.02
2023-03-29T11:14:38.950Z,38.07
2023-03-29T11:17:35.016Z,37.47
2023-03-29T11:20:28.156Z,36.99
2023-03-29T11:23:10.157Z,36.90
2023-03-29T11:25:54.795Z,37.35
2023-03-29T11:28:31.466Z,37.79
2023-03-29T11:31:10.205Z,37.18
2023-03-29T11:33:58.432Z,36.55
2023-03-29T11:36:34.239Z,36.57
2023-03-29T11:39:14.681Z,36.72
2023-03-29T11:41:49.999Z,37.05
2023-03-29T11:44:29.798Z,37.71
2023-03-29T11:46:58.784Z,36.98
2023-03-29T11:49:38.294Z,36.95
2023-03-29T11:52:39.910Z,36.70
2023-03-29T11:55:18.223Z,36.87
2023-03-29T11:58:14.951Z,36.73
2023-03-29T12:00:47.536Z,37.00
2023-03-29T12:03:26.014Z,37.15
2023-03-29T12:06:00.197Z,37.35
2023-03-29T12:08:35.925Z,37.72
2023-03-29T12:11:06.682Z,37.78
2023-03-29T12:13:42.874Z,37.99
2023-03-29T12:16:22.171Z,38.13
2023-03-29T12:18:54.506Z,37.26
2023-03-29T12:21:23.388Z,36.69
2023-03-29T12:23:52.004Z,36.54
2023-03-29T12:26:45.985Z,37.14
2023-03-29T12:29:48.656Z,36.73
2023-03-29T12:32:57.746Z,37.04
2023-03-29T12:35:34.380Z,37.41
2023-03-29T12:38:14.393Z,37.08
2023-03-29T12:40:57.337Z,37.17
2023-03-29T12:43:31.746Z,36.72
2023-03-29T12:46:06.489Z,36.33
2023-03-29T12:48:37.436Z,36.39
2023-03-29T12:51:07.904Z,36.88
2023-03-29T12:53:39.028Z,37.00
2023-03-29T12:56:13.937Z,36.95
2023-03-29T12:58:40.684Z,37.10
2023-03-29T13:01:28.229Z,36.91
2023-03-29T13:04:13.954Z,36.81
2023-03-29T13:06:46.863Z,37.16
2023-03-29T13:09:23.455Z,37.31
2023-03-29T13:11:56.184Z,37.73
2023-03-29T13:14:28.337Z,37.27
2023-03-29T13:17:17.778Z,36.96
2023-03-29T13:20:21.377Z,36.93
2023-03-29T13:22:56.350Z,36.98
2023-03-29T13:25:42.099Z,36.69
2023-03-29T13:28:27.753Z,36.83
2023-03-29T13:31:32.057Z,37.02
2023-03-29T13:34:26.787Z,36.83
2023-03-29T13:37:30.685Z,37.60
2023-03-29T13:39:57.444Z,37.19
2023-03-29T13:42:36.591Z,37.25
2023-03-29T13:45:30.394Z,37.21
2023-03-29T13:48:25.511Z,37.40
2023-03-29T13:50:56.514Z,37.65
2023-03-29T13:53:36.527Z,38.13
2023-03-29T13:56:05.819Z,37.97
2023-03-29T13:58:44.936Z,38.26
2023-03-29T14:01:19.532Z,38.79
2023-03-29T14:03:51.831Z,39.19
2023-03-29T14:06:31.890Z,39.60
2023-03-29T14:09:03.046Z,39.76
2023-03-29T14:11:31.271Z,40.18
2023-03-29T14:14:00.421Z,40.38
2023-03-29T14:16:32.092Z,40.94
2023-03-29T14:19:02.451Z,41.20
2023-03-29T14:21:29.612Z,41.37
2023-03-29T14:24:00.905Z,41.74
2023-03-29T14:26:33.264Z,42.16
2023-03-29T14:29:01.591Z,42.02
2023-03-29T14:31:32.668Z,41.90
2023-03-29T14:34:01.566Z,42.31
2023-03-29T14:36:29.877Z,42.12
2023-03-29T14:39:18.039Z,42.24
2023-03-29T14:41:52.070Z,42.01
2023-03-29T14:44:22.032Z,41.74
2023-03-29T14:46:48.928Z,41.89
2023-03-29T14:49:20.525Z,42.08
2023-03-29T14:51:48.069Z,41.55
2023-03-29T14:54:21.263Z,41.81
2023-03-29T14:56:49.371Z,41.87
2023-03-29T14:59:24.365Z,41.79
2023-03-29T15:01:51.213Z,41.81
2023-03-29T15:04:17.920Z,42.09
2023-03-29T15:06:47.066Z,42.49
2023-03-29T15:09:27.719Z,42.34
2023-03-29T15:11:56.657Z,42.44
2023-03-29T15:14:27.063Z,42.59
2023-03-29T15:17:01.433Z,42.67
2023-03-29T15:19:28.475Z,42.79
2023-03-29T15:21:55.164Z,42.74
2023-03-29T15:24:48.726Z,42.60
2023-03-29T15:27:19.180Z,42.46
2023-03-29T15:29:47.508Z,42.46
2023-03-29T15:32:23.009Z,42.74
2023-03-29T15:35:08.157Z,42.78
2023-03-29T15:37:36.999Z,43.02
2023-03-29T15:40:09.756Z,43.03
2023-03-29T15:42:36.993Z,43.18
2023-03-29T15:45:06.440Z,42.62
2023-03-29T15:47:33.300Z,43.00
2023-03-29T15:49:59.961Z,43.22
2023-03-29T15:52:26.805Z,43.32
2023-03-29T15:54:53.554Z,43.38
2023-03-29T15:57:20.533Z,43.21
2023-03-29T15:59:48.555Z,43.36
2023-03-29T16:02:16.825Z,43.64
2023-03-29T16:04:43.980Z,43.58
2023-03-29T16:07:14.659Z,43.86
2023-03-29T16:09:42.212Z,43.51
2023-03-29T16:12:10.477Z,43.34
2023-03-29T16:14:37.361Z,43.53
2023-03-29T16:17:04.917Z,43.71
2023-03-29T16:19:33.153Z,43.45
2023-03-29T16:22:02.469Z,43.56
2023-03-29T16:24:32.364Z,43.51
2023-03-29T16:27:01.419Z,43.87
2023-03-29T16:29:29.680Z,43.88
2023-03-29T16:31:57.787Z,43.95
2023-03-29T16:34:25.289Z,44.33
2023-03-29T16:36:53.219Z,44.51
2023-03-29T16:39:20.199Z,44.80
2023-03-29T16:41:49.064Z,45.11
2023-03-29T16:44:21.600Z,44.98
2023-03-29T16:46:50.043Z,44.76
2023-03-29T16:49:18.846Z,45.06
2023-03-29T16:51:47.255Z,45.20
2023-03-29T16:54:14.718Z,45.63
2023-03-29T16:56:41.535Z,45.70
2023-03-29T16:59:09.351Z,45.96
2023-03-29T17:01:36.811Z,46.12
2023-03-29T17:04:04.168Z,46.21
2023-03-29T17:06:32.776Z,46.43
2023-03-29T17:09:00.861Z,46.61
2023-03-29T17:11:28.917Z,46.83
2023-03-29T17:13:56.449Z,47.68
2023-03-29T17:16:23.350Z,48.28
2023-03-29T17:18:50.147Z,48.92
2023-03-29T17:21:17.147Z,49.65
2023-03-29T17:23:43.873Z,50.50
2023-03-29T17:26:12.052Z,50.91
2023-03-29T17:28:39.239Z,51.82
2023-03-29T17:31:07.800Z,52.50
2023-03-29T17:33:35.449Z,52.95
2023-03-29T17:36:03.815Z,53.36
2023-03-29T17:38:30.844Z,54.06
2023-03-29T17:40:57.566Z,54.87
2023-03-29T17:43:24.456Z,55.18
2023-03-29T17:45:54.966Z,55.32
2023-03-29T17:48:23.439Z,55.81
2023-03-29T17:50:50.319Z,56.14
2023-03-29T17:53:16.983Z,56.77
2023-03-29T17:55:44.819Z,56.77
2023-03-29T17:58:11.954Z,57.01
2023-03-29T18:00:38.851Z,57.26
2023-03-29T18:03:07.754Z,57.28
2023-03-29T18:05:35.854Z,57.09
2023-03-29T18:08:02.773Z,56.92
2023-03-29T18:10:30.662Z,56.99
2023-03-29T18:12:57.388Z,56.59
2023-03-29T18:15:24.104Z,56.61
2023-03-29T18:17:50.954Z,56.20
2023-03-29T18:20:17.914Z,55.96
2023-03-29T18:22:44.759Z,55.76
2023-03-29T18:25:11.539Z,55.61
2023-03-29T18:27:39.813Z,55.36
2023-03-29T18:30:08.797Z,55.35
2023-03-29T18:32:37.769Z,55.42
2023-03-29T18:36:01.112Z,55.52
2023-03-29T18:42:07.766Z,57.01
2023-03-29T18:48:12.412Z,58.00
2023-03-29T18:54:16.113Z,59.00
2023-03-29T19:00:20.249Z,59.68
2023-03-29T19:06:23.966Z,60.48
2023-03-29T19:12:28.932Z,60.74
2023-03-29T19:14:55.866Z,61.13
2023-03-29T19:17:22.618Z,61.30
2023-03-29T19:19:49.481Z,61.50
2023-03-29T19:22:17.449Z,61.76
2023-03-29T19:24:44.116Z,62.10
2023-03-29T19:27:12.584Z,62.40
2023-03-29T19:29:39.549Z,62.63
2023-03-29T19:32:07.076Z,62.56
2023-03-29T19:34:34.288Z,62.54
2023-03-29T19:37:01.203Z,62.69
2023-03-29T19:39:29.615Z,62.99
2023-03-29T19:41:57.549Z,63.29
2023-03-29T19:44:25.440Z,63.41
2023-03-29T19:46:52.305Z,63.81
2023-03-29T19:49:20.673Z,63.70
2023-03-29T19:51:48.176Z,63.86
2023-03-29T19:54:15.046Z,63.97
2023-03-29T19:56:43.050Z,64.02
2023-03-29T19:59:11.321Z,64.19
2023-03-29T20:01:41.019Z,64.43
2023-03-29T20:04:07.942Z,64.55
2023-03-29T20:06:35.001Z,64.64
2023-03-29T20:09:02.062Z,64.87
2023-03-29T20:11:29.077Z,65.12
2023-03-29T20:13:57.404Z,65.14
2023-03-29T20:16:30.077Z,65.09
2023-03-29T20:18:56.763Z,65.22
2023-03-29T20:21:24.538Z,65.43
2023-03-29T20:23:58.360Z,65.43
2023-03-29T20:26:26.439Z,65.67
2023-03-29T20:28:54.154Z,65.63
2023-03-29T20:31:21.306Z,65.93
2023-03-29T20:33:48.051Z,66.01
2023-03-29T20:36:18.775Z,66.10
2023-03-29T20:38:47.762Z,66.32
2023-03-29T20:41:16.608Z,66.38
2023-03-29T20:43:43.930Z,66.53
2023-03-29T20:46:23.070Z,66.70
2023-03-29T20:48:56.242Z,66.49
2023-03-29T20:51:43.188Z,66.62
2023-03-29T20:54:10.724Z,66.52
2023-03-29T20:56:40.181Z,66.25
2023-03-29T20:59:11.013Z,65.75
2023-03-29T21:01:41.002Z,65.42
2023-03-29T21:04:08.824Z,65.38
2023-03-29T21:06:36.280Z,65.31
2023-03-29T21:09:05.008Z,65.23
2023-03-29T21:11:32.199Z,65.05
2023-03-29T21:13:59.292Z,64.65
2023-03-29T21:16:26.012Z,64.35
2023-03-29T21:18:53.426Z,63.91
2023-03-29T21:21:20.210Z,63.48
2023-03-29T21:23:46.864Z,63.01
2023-03-29T21:26:13.689Z,62.62
2023-03-29T21:28:42.570Z,62.31
2023-03-29T21:31:09.902Z,62.05
2023-03-29T21:33:36.641Z,61.94
2023-03-29T21:36:03.649Z,61.65
2023-03-29T21:38:30.841Z,61.43
2023-03-29T21:40:58.340Z,61.15
2023-03-29T21:43:25.065Z,61.29
2023-03-29T21:45:51.733Z,61.11
2023-03-29T21:48:19.363Z,60.97
2023-03-29T21:50:50.282Z,61.06
2023-03-29T21:53:19.012Z,60.69
2023-03-29T21:55:49.003Z,60.59
2023-03-29T21:58:16.263Z,60.39
2023-03-29T22:00:43.013Z,60.19
2023-03-29T22:03:09.782Z,60.29
2023-03-29T22:05:36.953Z,60.14
2023-03-29T22:08:06.572Z,60.03
2023-03-29T22:10:33.740Z,60.02
2023-03-29T22:13:00.829Z,60.01
2023-03-29T22:15:29.515Z,60.03
2023-03-29T22:17:59.751Z,60.29
2023-03-29T22:20:27.700Z,60.20
2023-03-29T22:22:54.391Z,60.15
2023-03-29T22:25:22.875Z,60.26
2023-03-29T22:27:50.076Z,60.15
2023-03-29T22:30:17.422Z,60.27
2023-03-29T22:32:44.225Z,60.47
2023-03-29T22:35:11.064Z,60.71
2023-03-29T22:37:44.411Z,61.09
2023-03-29T22:40:13.375Z,61.01
2023-03-29T22:42:40.261Z,61.37
2023-03-29T22:45:08.008Z,61.75
2023-03-29T22:47:35.544Z,62.08
2023-03-29T22:50:02.409Z,62.10
2023-03-29T22:52:30.176Z,62.23
2023-03-29T22:54:56.820Z,62.43
2023-03-29T22:57:24.602Z,62.73
2023-03-29T22:59:51.365Z,63.10
2023-03-29T23:02:18.071Z,63.39
2023-03-29T23:04:45.772Z,63.18
2023-03-29T23:07:12.548Z,62.85
2023-03-29T23:09:39.294Z,62.70
2023-03-29T23:12:06.284Z,62.80
2023-03-29T23:14:34.209Z,62.97
2023-03-29T23:17:00.989Z,63.01
2023-03-29T23:19:28.678Z,63.22
2023-03-29T23:21:55.465Z,63.35
2023-03-29T23:24:23.024Z,63.51
2023-03-29T23:26:50.796Z,63.48
2023-03-29T23:29:17.491Z,63.56
2023-03-29T23:31:44.490Z,63.62
2023-03-29T23:34:11.445Z,63.49
2023-03-29T23:36:38.158Z,63.48
2023-03-29T23:39:08.090Z,63.02
2023-03-29T23:41:34.921Z,62.68
2023-03-29T23:44:03.756Z,62.32
2023-03-29T23:46:31.468Z,62.17
2023-03-29T23:48:58.649Z,61.97
2023-03-29T23:51:28.461Z,61.53
2023-03-29T23:53:57.201Z,61.43
2023-03-29T23:56:24.487Z,60.90
2023-03-29T23:58:52.506Z,60.41
